»·PEaware :: N701GT L70-L08

N701GT :: L70-L08

FLIGHT INFORMATION

Flight Status: Arrived
Operator: Privately registered:
United States
More flights under this callsign
Pilot: Anonymous 17564 (17564)
Aircraft: PIPER PA-44 SEMINOLE
(PA44)
More flights by this aircraft type
Origin: L70 Agua Dulce
United States
Destination: L08 Borrego Valley
United States
More flights between these airports :: More routes between these airports
Route: SLAPP V518 KIMMO V459 DARTS V186 ROBNN V208 JLI
File this flight plan on PilotEdge
Remarks: P3Dv4.1 ORBX GLOBAL / VECTOR / NA openLC / SOCAL / NORCAL / PACNW / CTL RKIES / F1 GTN750 G600 / ASP4 Weather Gen
Altitude:
(Current/Filed)
11,500ft
Speed:
(Current/Filed)
150kts
Departed: 04-Mar-18 11:30 AM
Arrived: 04-Mar-18 12:31 PM
Distance/Time
Traveled:
124nm/1:01
Distance/Time
To Go:
Arrived

Flight Plot

Page will automatically refresh every two minutes.

Flight plan parsing failed; only flown route is shown


Map Options




Map Legend


Flown Route
Filed Route
Departure Airport
Arrival Airport
Navaid (VOR, NDB)
Fix

Horizontal Profiles

Position Reports

Time Latitude Longitude Heading Altitude Ground
Speed
04-Mar-18 11:30 34.503316 -118.314647 324 2605ft 0kts
04-Mar-18 11:31 34.503316 -118.314647 324 2605ft 0kts
04-Mar-18 11:32 34.503316 -118.314647 324 2605ft 0kts
04-Mar-18 11:33 34.503317 -118.314647 324 2605ft 0kts
04-Mar-18 11:34 34.503196 -118.314795 179 2605ft 3kts
04-Mar-18 11:35 34.502147 -118.316142 233 2605ft 7kts
04-Mar-18 11:36 34.500733 -118.318384 232 2605ft 8kts
04-Mar-18 11:37 34.502244 -118.315098 49 2629ft 79kts
04-Mar-18 11:38 34.518566 -118.291526 343 4089ft 95kts
04-Mar-18 11:39 34.511308 -118.314587 205 5518ft 96kts
04-Mar-18 11:40 34.484743 -118.324092 200 6906ft 100kts
04-Mar-18 11:41 34.460433 -118.336087 244 8249ft 84kts
04-Mar-18 11:42 34.450033 -118.353706 245 9181ft 77kts
04-Mar-18 11:43 34.432289 -118.382171 245 10289ft 101kts
04-Mar-18 11:44 34.417787 -118.405173 246 10986ft 103kts
04-Mar-18 11:45 34.388141 -118.404221 158 11623ft 158kts
04-Mar-18 11:46 34.337270 -118.374745 163 11606ft 184kts
04-Mar-18 11:47 34.292856 -118.348903 164 11611ft 171kts
04-Mar-18 11:48 34.261871 -118.330943 164 11588ft 172kts
04-Mar-18 11:49 34.219057 -118.306087 164 11588ft 170kts
04-Mar-18 11:50 34.176677 -118.281523 164 11582ft 170kts
04-Mar-18 11:51 34.146472 -118.239733 105 11594ft 180kts
04-Mar-18 11:52 34.129442 -118.182359 108 11609ft 184kts
04-Mar-18 11:53 34.111358 -118.123205 108 11595ft 184kts
04-Mar-18 11:54 34.096056 -118.073198 108 11604ft 183kts
04-Mar-18 11:55 34.078299 -118.015452 108 11607ft 183kts
04-Mar-18 11:56 34.060583 -117.957845 108 11607ft 183kts
04-Mar-18 11:57 34.042862 -117.900295 109 11608ft 183kts
04-Mar-18 11:58 34.025026 -117.842594 109 11630ft 186kts
04-Mar-18 11:59 34.006506 -117.782852 109 11607ft 186kts
04-Mar-18 12:00 33.987583 -117.725360 113 11602ft 184kts
04-Mar-18 12:01 33.967382 -117.668677 112 11602ft 183kts
04-Mar-18 12:02 33.947603 -117.612735 112 11604ft 183kts
04-Mar-18 12:03 33.927575 -117.556064 113 11615ft 186kts
04-Mar-18 12:04 33.895524 -117.510225 155 11597ft 177kts
04-Mar-18 12:05 33.855238 -117.476892 153 11596ft 174kts
04-Mar-18 12:06 33.815421 -117.443602 153 11595ft 173kts
04-Mar-18 12:07 33.775762 -117.410445 154 11588ft 173kts
04-Mar-18 12:08 33.736218 -117.377393 154 11587ft 173kts
04-Mar-18 12:09 33.696601 -117.344315 153 11589ft 172kts
04-Mar-18 12:10 33.657303 -117.311521 154 11588ft 172kts
04-Mar-18 12:11 33.617889 -117.278704 154 11605ft 174kts
04-Mar-18 12:12 33.577456 -117.245040 154 11585ft 174kts
04-Mar-18 12:13 33.538051 -117.212291 154 11588ft 171kts
04-Mar-18 12:14 33.498785 -117.179632 154 11584ft 171kts
04-Mar-18 12:15 33.458073 -117.157248 184 11594ft 154kts
04-Mar-18 12:16 33.415520 -117.148372 183 11587ft 155kts
04-Mar-18 12:17 33.372891 -117.139303 183 11593ft 158kts
04-Mar-18 12:18 33.329116 -117.130093 182 11597ft 160kts
04-Mar-18 12:19 33.284858 -117.120721 182 11589ft 161kts
04-Mar-18 12:20 33.240627 -117.111236 182 11595ft 161kts
04-Mar-18 12:21 33.200205 -117.089491 112 11595ft 185kts
04-Mar-18 12:22 33.195467 -117.028312 98 11596ft 187kts
04-Mar-18 12:23 33.187291 -116.967121 98 11592ft 186kts
04-Mar-18 12:24 33.179658 -116.905718 97 11588ft 186kts
04-Mar-18 12:25 33.172271 -116.844682 97 11487ft 185kts
04-Mar-18 12:26 33.165189 -116.786766 97 11441ft 170kts
04-Mar-18 12:27 33.158391 -116.731574 97 11434ft 165kts
04-Mar-18 12:28 33.151172 -116.672354 97 10665ft 193kts
04-Mar-18 12:29 33.143209 -116.608089 96 9697ft 196kts
04-Mar-18 12:30 33.156100 -116.550499 57 8477ft 177kts
04-Mar-18 12:31 33.178940 -116.500033 58 6717ft 167kts
04-Mar-18 12:32 33.200470 -116.452043 60 4916ft 161kts
04-Mar-18 12:33 33.221371 -116.405262 60 3113ft 159kts
04-Mar-18 12:34 33.241119 -116.361028 61 1849ft 126kts
04-Mar-18 12:35 33.248279 -116.325975 86 1347ft 87kts
04-Mar-18 12:36 33.249140 -116.299629 79 1041ft 76kts
04-Mar-18 12:37 33.259080 -116.309299 271 594ft 83kts
04-Mar-18 12:38 33.258973 -116.322042 247 523ft 9kts
04-Mar-18 12:39 33.258710 -116.322243 183 523ft 2kts
04-Mar-18 12:40 33.257844 -116.322969 229 523ft 4kts
04-Mar-18 12:41 33.257836 -116.324810 244 523ft 2kts
04-Mar-18 12:42 33.257784 -116.324852 190 523ft 0kts
04-Mar-18 12:43 33.257784 -116.324852 190 523ft 0kts
04-Mar-18 12:44 33.257784 -116.324852 190 523ft 0kts
04-Mar-18 12:45 33.257784 -116.324852 190 523ft 0kts
04-Mar-18 12:46 33.257784 -116.324852 190 523ft 0kts
04-Mar-18 12:47 33.257784 -116.324852 190 523ft 0kts
04-Mar-18 12:48 33.257784 -116.324852 190 523ft 0kts
04-Mar-18 12:49 33.257784 -116.324852 190 523ft 0kts
04-Mar-18 12:50 33.257784 -116.324852 190 523ft 0kts
04-Mar-18 12:51 33.257784 -116.324852 190 523ft 0kts
04-Mar-18 12:52 33.257784 -116.324852 190 523ft 0kts

Navigation Log

Ident Type
Flight plan parsing failed, navigation log unavailable